Time;durP1;ratioP1;P1;durP2;ratioP2;P2;SDS_P1;SDS_P2;PMS_P1;PMS_P2;Temp;Humidity;BMP_temperature;BMP_pressure;BME280_temperature;BME280_humidity;BME280_pressure;Samples;Min_cycle;Max_cycle;Signal;HPM_P1;HPM_P2
2022/04/01 00:01:51;;;;;;;12.10;5.25;;;;;;;-0.62;100.00;100203.31;5049117;28;20052;-74
2022/04/01 00:04:17;;;;;;;10.05;5.63;;;;;;;-0.70;100.00;100202.22;5049027;28;20515;-74
2022/04/01 00:06:42;;;;;;;10.40;5.82;;;;;;;-0.68;100.00;100207.31;5048963;28;20499;-75
2022/04/01 00:09:08;;;;;;;14.70;7.20;;;;;;;-0.67;100.00;100206.34;5048780;28;20043;-74
2022/04/01 00:11:33;;;;;;;9.63;5.32;;;;;;;-0.68;100.00;100215.16;5047419;28;20438;-74
2022/04/01 00:13:59;;;;;;;9.95;5.68;;;;;;;-0.76;100.00;100202.78;5048754;28;20079;-74
2022/04/01 00:16:24;;;;;;;10.75;5.20;;;;;;;-0.75;100.00;100214.06;5048908;28;20033;-74
2022/04/01 00:18:49;;;;;;;8.55;4.80;;;;;;;-0.75;100.00;100211.44;5048855;28;20040;-75
2022/04/01 00:21:15;;;;;;;8.55;4.93;;;;;;;-0.71;100.00;100218.91;5048848;28;20033;-74
2022/04/01 00:23:40;;;;;;;10.13;5.68;;;;;;;-0.73;100.00;100223.44;5048802;28;20033;-74
2022/04/01 00:26:05;;;;;;;9.20;4.75;;;;;;;-0.74;100.00;100224.38;5048520;28;20056;-74
2022/04/01 00:28:31;;;;;;;8.02;4.22;;;;;;;-0.75;100.00;100220.13;5047176;28;20124;-74
2022/04/01 00:30:56;;;;;;;8.55;4.95;;;;;;;-0.76;100.00;100221.09;5048804;28;20059;-74
2022/04/01 00:33:22;;;;;;;8.07;4.65;;;;;;;-0.71;100.00;100233.75;5048711;28;20021;-74
2022/04/01 00:35:47;;;;;;;10.20;4.93;;;;;;;-0.78;100.00;100228.25;5048654;28;20029;-75
2022/04/01 00:38:13;;;;;;;8.52;4.63;;;;;;;-0.75;100.00;100225.34;5048437;28;20045;-74
2022/04/01 00:40:39;;;;;;;7.22;4.78;;;;;;;-0.72;100.00;100214.59;5051633;28;20476;-75
2022/04/01 00:43:05;;;;;;;10.32;5.88;;;;;;;-0.75;100.00;100222.75;5052371;28;20032;-75
2022/04/01 00:45:30;;;;;;;20.50;6.97;;;;;;;-0.75;100.00;100230.59;5052290;28;20021;-75
2022/04/01 00:48:01;;;;;;;11.07;5.65;;;;;;;-0.71;100.00;100232.00;5052330;28;20021;-74
2022/04/01 00:50:31;;;;;;;7.40;4.65;;;;;;;-0.71;100.00;100225.91;5050971;28;20028;-75
2022/04/01 00:52:57;;;;;;;6.32;4.32;;;;;;;-0.71;100.00;100223.28;5052074;28;20033;-75
2022/04/01 00:55:23;;;;;;;9.02;5.05;;;;;;;-0.77;100.00;100222.06;5051961;28;20103;-75
2022/04/01 00:57:48;;;;;;;6.35;3.90;;;;;;;-0.76;100.00;100226.34;5050567;28;20119;-75
2022/04/01 01:00:14;;;;;;;9.43;4.65;;;;;;;-0.78;100.00;100225.66;5052003;28;20059;-75
2022/04/01 01:02:40;;;;;;;11.68;5.28;;;;;;;-0.82;100.00;100236.53;5050782;28;20040;-75
2022/04/01 01:05:05;;;;;;;8.27;4.22;;;;;;;-0.80;100.00;100230.19;5050240;28;20108;-75
2022/04/01 01:07:31;;;;;;;9.60;4.85;;;;;;;-0.78;100.00;100238.72;5051740;28;20065;-75
2022/04/01 01:09:57;;;;;;;7.35;4.07;;;;;;;-0.76;100.00;100231.56;5051951;28;20071;-75
2022/04/01 01:12:25;;;;;;;10.20;4.88;;;;;;;-0.78;100.00;100243.97;5051776;28;20060;-75
2022/04/01 01:14:50;;;;;;;9.63;4.78;;;;;;;-0.76;100.00;100235.97;5051830;28;20126;-73
2022/04/01 01:17:15;;;;;;;7.32;4.78;;;;;;;-0.74;100.00;100247.94;5051764;28;20961;-75
2022/04/01 01:19:45;;;;;;;6.50;4.00;;;;;;;-0.75;100.00;100242.88;5050521;28;20064;-74
2022/04/01 01:22:12;;;;;;;7.65;4.13;;;;;;;-0.79;100.00;100244.09;5050321;28;20447;-75
2022/04/01 01:24:41;;;;;;;10.40;4.47;;;;;;;-0.77;100.00;100229.91;5051595;28;20024;-75
2022/04/01 01:27:08;;;;;;;6.10;3.72;;;;;;;-0.77;100.00;100250.03;5051581;28;20035;-74
2022/04/01 01:29:37;;;;;;;8.07;4.90;;;;;;;-0.80;100.00;100237.22;5051440;28;20095;-75
2022/04/01 01:32:04;;;;;;;7.18;4.70;;;;;;;-0.79;100.00;100234.44;5051621;28;20091;-74
2022/04/01 01:34:34;;;;;;;10.60;4.72;;;;;;;-0.79;100.00;100249.34;5051311;28;20103;-75
2022/04/01 01:37:01;;;;;;;8.20;5.47;;;;;;;-0.82;100.00;100233.91;5051349;28;20033;-75
2022/04/01 01:39:27;;;;;;;7.03;4.60;;;;;;;-0.76;100.00;100234.19;5049831;28;20495;-74
2022/04/01 01:41:53;;;;;;;7.50;4.53;;;;;;;-0.75;100.00;100250.72;5051228;28;20025;-74
2022/04/01 01:44:21;;;;;;;7.85;4.43;;;;;;;-0.78;100.00;100243.97;5051256;28;20033;-75
2022/04/01 01:46:47;;;;;;;10.52;4.82;;;;;;;-0.77;100.00;100255.25;5051053;28;20529;-75
2022/04/01 01:49:12;;;;;;;5.72;3.45;;;;;;;-0.81;100.00;100243.41;5050918;28;20033;-75
2022/04/01 01:54:43;;;;;;;10.30;5.90;;;;;;;-0.75;100.00;100246.31;5049941;28;20033;-75
2022/04/01 01:57:09;;;;;;;11.65;4.82;;;;;;;-0.74;100.00;100270.69;5051008;28;20044;-76
2022/04/01 01:59:35;;;;;;;8.90;4.45;;;;;;;-0.72;100.00;100259.13;5050626;28;20108;-76
2022/04/01 02:02:05;;;;;;;5.88;4.20;;;;;;;-0.77;100.00;100263.94;5036704;28;20156;-76
2022/04/01 02:04:30;;;;;;;10.50;5.43;;;;;;;-0.83;100.00;100246.19;5050837;28;20029;-75
2022/04/01 02:06:56;;;;;;;10.32;6.18;;;;;;;-0.82;100.00;100258.28;5049427;28;20036;-76
2022/04/01 02:09:21;;;;;;;7.25;4.72;;;;;;;-0.79;100.00;100275.50;5050821;28;20829;-76
2022/04/01 02:11:47;;;;;;;6.43;4.22;;;;;;;-0.72;100.00;100268.75;5050645;28;20102;-75
2022/04/01 02:14:12;;;;;;;8.02;5.10;;;;;;;-0.79;100.00;100273.72;5050503;28;20033;-76
2022/04/01 02:16:39;;;;;;;7.32;4.43;;;;;;;-0.85;100.00;100257.75;5050577;28;20043;-76
2022/04/01 02:19:04;;;;;;;8.45;4.82;;;;;;;-0.80;100.00;100281.72;5050124;28;20574;-76
2022/04/01 02:21:30;;;;;;;5.45;4.03;;;;;;;-0.82;100.00;100262.69;5050505;28;20064;-76
2022/04/01 02:23:55;;;;;;;8.43;4.72;;;;;;;-0.78;100.00;100266.72;5050408;28;20031;-75
2022/04/01 02:26:21;;;;;;;7.90;3.65;;;;;;;-0.81;100.00;100280.91;5050318;28;20111;-76
2022/04/01 02:28:47;;;;;;;7.93;4.82;;;;;;;-0.72;100.00;100281.84;5050173;28;20024;-76
2022/04/01 02:31:14;;;;;;;10.02;4.78;;;;;;;-0.77;100.00;100284.06;5049805;28;20040;-75
2022/04/01 02:33:42;;;;;;;8.50;4.85;;;;;;;-0.83;100.00;100284.63;5050462;28;20032;-76
2022/04/01 02:36:10;;;;;;;8.70;5.97;;;;;;;-0.76;100.00;100286.56;5049762;28;20029;-76
2022/04/01 02:38:38;;;;;;;8.25;4.78;;;;;;;-0.73;100.00;100293.31;5049921;28;20055;-76
2022/04/01 02:41:03;;;;;;;8.52;4.47;;;;;;;-0.69;100.00;100294.66;5049976;28;20045;-76
2022/04/01 02:43:28;;;;;;;9.40;4.45;;;;;;;-0.77;100.00;100292.72;5048751;28;20369;-76
2022/04/01 02:45:54;;;;;;;6.82;4.00;;;;;;;-0.80;100.00;100305.28;5050057;28;20063;-76
2022/04/01 02:48:20;;;;;;;6.90;4.07;;;;;;;-0.76;100.00;100293.56;5048737;28;20100;-76
2022/04/01 02:50:48;;;;;;;7.57;4.80;;;;;;;-0.81;100.00;100296.59;5049895;28;20111;-76
2022/04/01 02:53:16;;;;;;;7.38;4.63;;;;;;;-0.75;100.00;100288.19;5049743;28;20033;-74
2022/04/01 02:55:41;;;;;;;9.30;5.40;;;;;;;-0.77;100.00;100302.38;5049858;28;20524;-77
2022/04/01 02:58:07;;;;;;;7.15;4.57;;;;;;;-0.77;100.00;100305.81;5050050;28;20039;-76
2022/04/01 03:00:33;;;;;;;10.80;6.13;;;;;;;-0.76;100.00;100309.25;5049850;28;20384;-76
2022/04/01 03:02:59;;;;;;;11.43;5.93;;;;;;;-0.75;100.00;100316.19;5047712;28;20028;-76
2022/04/01 03:05:24;;;;;;;10.07;4.97;;;;;;;-0.76;100.00;100307.50;5049740;28;20409;-75
2022/04/01 03:07:50;;;;;;;9.52;6.18;;;;;;;-0.78;100.00;100314.66;5049650;28;20043;-76
2022/04/01 03:10:17;;;;;;;11.15;5.35;;;;;;;-0.76;100.00;100325.81;5049266;28;20031;-74
2022/04/01 03:12:42;;;;;;;9.30;4.65;;;;;;;-0.72;100.00;100321.13;5049526;28;20040;-76
2022/04/01 03:15:08;;;;;;;9.63;5.10;;;;;;;-0.76;100.00;100324.97;5048308;28;20124;-77
2022/04/01 03:17:34;;;;;;;11.35;6.05;;;;;;;-0.75;100.00;100321.41;5048205;28;20092;-74
2022/04/01 03:20:02;;;;;;;11.15;6.20;;;;;;;-0.78;100.00;100332.16;5049577;28;20025;-74
2022/04/01 03:22:28;;;;;;;13.00;7.10;;;;;;;-0.68;100.00;100333.00;5049792;28;20052;-76
2022/04/01 03:24:53;;;;;;;13.45;6.85;;;;;;;-0.76;100.00;100325.81;5036797;28;20126;-75
2022/04/01 03:27:19;;;;;;;11.00;7.45;;;;;;;-0.74;100.00;100347.44;5049144;28;20107;-77
2022/04/01 03:29:45;;;;;;;12.25;6.30;;;;;;;-0.80;100.00;100328.84;5048071;28;20033;-74
2022/04/01 03:32:10;;;;;;;12.93;6.80;;;;;;;-0.74;100.00;100338.75;5049268;28;20116;-73
2022/04/01 03:34:37;;;;;;;10.68;6.05;;;;;;;-0.84;100.00;100351.81;5049178;28;20128;-76
2022/04/01 03:37:05;;;;;;;10.27;5.80;;;;;;;-0.77;100.00;100344.28;5049347;28;20039;-73
2022/04/01 03:39:32;;;;;;;9.93;5.47;;;;;;;-0.72;100.00;100355.16;5049025;28;20057;-74
2022/04/01 03:41:57;;;;;;;12.63;7.40;;;;;;;-0.72;100.00;100355.16;5049030;28;20036;-76
2022/04/01 03:44:24;;;;;;;11.32;6.20;;;;;;;-0.82;100.00;100351.72;5049089;28;20044;-75
2022/04/01 03:46:56;;;;;;;10.13;5.75;;;;;;;-0.82;100.00;100351.72;5049179;28;20044;-73
2022/04/01 03:49:23;;;;;;;9.13;5.47;;;;;;;-0.79;100.00;100359.28;5049243;28;20099;-73
2022/04/01 03:51:49;;;;;;;10.13;5.65;;;;;;;-0.80;100.00;100362.88;5048998;28;20392;-73
2022/04/01 03:54:16;;;;;;;10.63;6.10;;;;;;;-0.82;100.00;100356.94;5048891;28;20028;-75
2022/04/01 03:56:47;;;;;;;11.95;6.15;;;;;;;-0.81;100.00;100364.69;5048015;28;20415;-73
2022/04/01 03:59:15;;;;;;;11.68;6.18;;;;;;;-0.81;100.00;100369.91;5047628;28;20487;-73
2022/04/01 04:01:40;;;;;;;10.82;5.95;;;;;;;-0.76;100.00;100369.47;5049194;28;20032;-73
2022/04/01 04:04:06;;;;;;;9.93;5.55;;;;;;;-0.76;100.00;100372.09;5049105;28;20050;-75
2022/04/01 04:06:34;;;;;;;8.15;4.95;;;;;;;-0.79;100.00;100386.28;5049213;28;20039;-73
2022/04/01 04:09:01;;;;;;;11.15;5.53;;;;;;;-0.79;100.00;100395.94;5048877;28;20049;-73
2022/04/01 04:11:32;;;;;;;10.98;6.75;;;;;;;-0.80;100.00;100389.06;5049008;28;20108;-73
2022/04/01 04:14:00;;;;;;;10.23;5.63;;;;;;;-0.82;100.00;100398.84;5049721;28;20037;-76
2022/04/01 04:16:44;;;;;;;12.27;6.18;;;;;;;-0.82;100.00;100396.22;5053119;28;20047;-73
2022/04/01 04:19:38;;;;;;;12.45;7.15;;;;;;;-0.79;100.00;100394.16;5053065;28;20106;-73
2022/04/01 04:22:13;;;;;;;10.32;5.57;;;;;;;-0.87;100.00;100396.59;5049116;28;20120;-73
2022/04/01 04:24:54;;;;;;;11.40;5.40;;;;;;;-0.83;100.00;100403.25;5052915;28;20024;-74
2022/04/01 04:27:26;;;;;;;11.45;6.20;;;;;;;-0.86;100.00;100406.13;5039796;28;20086;-75
2022/04/01 04:29:52;;;;;;;;;;;;;;;-0.81;100.00;100417.03;5053134;28;20035;-72
2022/04/01 04:32:32;;;;;;;11.25;5.72;;;;;;;-0.89;100.00;100428.16;5052834;28;19924;-72
2022/04/01 04:35:02;;;;;;;11.15;6.15;;;;;;;-0.82;100.00;100417.97;5052965;28;20029;-74
2022/04/01 04:37:29;;;;;;;11.63;5.40;;;;;;;-0.77;100.00;100435.91;5067823;28;20032;-72
2022/04/01 04:39:55;;;;;;;10.70;5.20;;;;;;;-0.84;100.00;100437.41;5052514;28;20053;-74
2022/04/01 04:42:21;;;;;;;11.57;6.00;;;;;;;-0.91;100.00;100429.25;5052895;28;20029;-72
2022/04/01 04:44:48;;;;;;;10.43;5.90;;;;;;;-0.86;100.00;100431.47;5052499;28;20021;-72
2022/04/01 04:47:15;;;;;;;12.88;6.20;;;;;;;-0.83;100.00;100467.88;5052802;28;20048;-74
2022/04/01 04:49:47;;;;;;;17.45;7.93;;;;;;;-0.85;100.00;100433.13;5052762;28;20120;-71
2022/04/01 04:52:16;;;;;;;12.75;6.80;;;;;;;-0.86;100.00;100445.41;5052834;28;20025;-72
2022/04/01 04:54:41;;;;;;;13.35;5.97;;;;;;;-0.93;100.00;100431.19;5052825;28;20028;-71
2022/04/01 04:57:07;;;;;;;14.18;6.82;;;;;;;-0.83;100.00;100452.97;5052654;28;20097;-72
2022/04/01 04:59:35;;;;;;;10.98;5.80;;;;;;;-0.79;100.00;100471.88;5052670;28;20029;-71
2022/04/01 05:02:06;;;;;;;10.73;5.30;;;;;;;-0.82;100.00;100462.47;5052721;28;20037;-72
2022/04/01 05:04:42;;;;;;;10.60;4.93;;;;;;;-0.82;100.00;100465.09;5052799;28;20025;-72
2022/04/01 05:07:26;;;;;;;10.68;5.47;;;;;;;-0.83;100.00;100466.06;5052348;28;20024;-72
2022/04/01 05:09:59;;;;;;;11.07;6.22;;;;;;;-0.75;100.00;100491.59;5050852;28;20064;-71
2022/04/01 05:12:44;;;;;;;10.30;5.72;;;;;;;-0.83;100.00;100492.25;5052501;28;20100;-74
2022/04/01 05:15:11;;;;;;;8.98;5.03;;;;;;;-0.77;100.00;100490.88;5051016;28;20476;-72
2022/04/01 05:17:56;;;;;;;10.77;5.82;;;;;;;-0.84;100.00;100500.22;5052304;28;20025;-72
2022/04/01 05:20:28;;;;;;;13.50;7.55;;;;;;;-0.79;100.00;100496.25;5052179;28;20032;-72
2022/04/01 05:22:54;;;;;;;10.38;6.13;;;;;;;-0.80;100.00;100499.84;5050943;28;20083;-72
2022/04/01 05:25:22;;;;;;;11.07;5.50;;;;;;;-0.81;100.00;100502.56;5051178;28;20024;-72
2022/04/01 05:27:50;;;;;;;8.30;5.25;;;;;;;-0.85;100.00;100509.06;5051907;28;20075;-71
2022/04/01 05:30:16;;;;;;;10.15;5.85;;;;;;;-0.91;100.00;100521.69;5052175;28;20091;-72
2022/04/01 05:32:54;;;;;;;9.20;5.32;;;;;;;-0.88;100.00;100512.75;5050677;28;20081;-72
2022/04/01 05:35:20;;;;;;;10.93;7.43;;;;;;;-0.80;100.00;100523.41;5051859;28;20064;-72
2022/04/01 05:37:46;;;;;;;11.80;6.70;;;;;;;-0.90;100.00;100525.97;5051579;28;20472;-72
2022/04/01 05:40:12;;;;;;;12.20;6.63;;;;;;;-0.86;100.00;100525.69;5050337;28;20061;-72
2022/04/01 05:42:38;;;;;;;11.25;5.80;;;;;;;-0.90;100.00;100531.19;5051777;28;20029;-72
2022/04/01 05:45:04;;;;;;;13.73;6.32;;;;;;;-0.84;100.00;100542.94;5051596;28;20032;-72
2022/04/01 05:47:33;;;;;;;9.82;6.80;;;;;;;-0.76;100.00;100537.06;5051503;28;20465;-72
2022/04/01 05:49:59;;;;;;;11.52;6.43;;;;;;;-0.79;100.00;100537.31;5050121;28;20044;-74
2022/04/01 05:52:25;;;;;;;10.90;6.10;;;;;;;-0.83;100.00;100541.16;5051529;28;20082;-71
2022/04/01 05:54:51;;;;;;;14.60;6.22;;;;;;;-0.85;100.00;100545.69;5051358;28;20124;-72
2022/04/01 05:57:20;;;;;;;12.38;6.72;;;;;;;-0.84;100.00;100566.50;5051269;28;20033;-72
2022/04/01 05:59:46;;;;;;;10.00;4.85;;;;;;;-0.84;100.00;100561.25;5051334;28;20162;-72
2022/04/01 06:02:27;;;;;;;8.43;5.05;;;;;;;-0.90;100.00;100567.84;5051668;28;20159;-72
2022/04/01 06:05:09;;;;;;;12.40;6.67;;;;;;;-0.81;100.00;100571.50;5051329;28;20025;-72
2022/04/01 06:07:44;;;;;;;;;;;;;;;-0.84;100.00;100563.06;5051523;28;20132;-71
2022/04/01 06:10:51;;;;;;;7.80;5.05;;;;;;;-0.87;100.00;100606.03;5051107;28;19913;-71
2022/04/01 06:13:32;;;;;;;9.35;5.80;;;;;;;-0.88;100.00;100578.19;4997335;28;20061;-71
2022/04/01 06:16:11;;;;;;;8.68;4.40;;;;;;;-0.84;100.00;100594.47;5046081;28;20052;-72
2022/04/01 06:18:47;;;;;;;9.50;5.57;;;;;;;-0.82;100.00;100588.16;5050861;28;20095;-71
2022/04/01 06:21:22;;;;;;;10.20;5.40;;;;;;;-0.88;100.00;100589.50;5050864;28;20052;-71
2022/04/01 06:24:12;;;;;;;9.82;6.00;;;;;;;-0.82;100.00;100598.63;5050727;28;20052;-71
2022/04/01 06:26:51;;;;;;;11.18;6.38;;;;;;;-0.82;100.00;100616.13;5050914;28;20029;-71
2022/04/01 06:29:35;;;;;;;8.15;4.38;;;;;;;-0.80;100.00;100606.34;5050848;28;20036;-72
2022/04/01 06:32:26;;;;;;;7.38;4.68;;;;;;;-0.87;100.00;100611.25;5050641;28;20070;-73
2022/04/01 06:35:07;;;;;;;6.57;3.83;;;;;;;-0.83;100.00;100622.34;5050638;28;20025;-72
2022/04/01 06:37:35;;;;;;;8.95;4.43;;;;;;;-0.82;100.00;100634.44;5049095;28;20033;-71
2022/04/01 06:40:12;;;;;;;6.35;4.10;;;;;;;-0.85;100.00;100634.72;5050489;28;20053;-71
2022/04/01 06:42:40;;;;;;;5.88;4.10;;;;;;;-0.84;100.00;100618.03;5049575;28;20427;-72
2022/04/01 06:45:10;;;;;;;7.68;4.60;;;;;;;-0.90;100.00;100635.91;5049863;28;20024;-72
2022/04/01 06:47:36;;;;;;;10.82;4.70;;;;;;;-0.86;100.00;100646.97;5050364;28;20021;-71
2022/04/01 06:50:03;;;;;;;7.57;4.15;;;;;;;-0.86;100.00;100644.34;5050575;28;20029;-72
2022/04/01 06:52:28;;;;;;;10.27;4.13;;;;;;;-0.85;100.00;100653.03;5050065;28;20052;-72
2022/04/01 06:54:54;;;;;;;6.72;3.90;;;;;;;-0.81;100.00;100651.81;5049422;28;20048;-72
2022/04/01 06:57:20;;;;;;;6.65;4.40;;;;;;;-0.85;100.00;100653.88;5049994;28;20084;-72
2022/04/01 06:59:46;;;;;;;9.18;4.90;;;;;;;-0.73;99.75;100676.41;5048515;28;20028;-72
2022/04/01 07:02:11;;;;;;;7.10;4.05;;;;;;;-0.71;99.77;100665.78;5050084;28;20116;-71
2022/04/01 07:04:37;;;;;;;10.23;4.00;;;;;;;-0.73;99.92;100683.44;5049929;28;20033;-72
2022/04/01 07:07:03;;;;;;;4.63;3.45;;;;;;;-0.82;99.63;100668.47;5049906;28;20067;-71
2022/04/01 07:09:28;;;;;;;6.85;3.53;;;;;;;-0.77;99.48;100669.75;5049773;28;20060;-71
2022/04/01 07:11:56;;;;;;;10.05;5.13;;;;;;;-0.80;100.00;100672.63;5050521;28;20128;-71
2022/04/01 07:14:22;;;;;;;7.63;4.03;;;;;;;-0.82;100.00;100678.97;5050059;28;20039;-71
2022/04/01 07:16:47;;;;;;;8.10;4.13;;;;;;;-0.77;99.32;100679.41;5050037;28;20040;-71
2022/04/01 07:19:12;;;;;;;8.90;4.85;;;;;;;-0.77;99.46;100687.25;5050226;28;20059;-73
2022/04/01 07:21:38;;;;;;;10.05;5.05;;;;;;;-0.81;99.80;100689.31;5050201;28;20033;-71
2022/04/01 07:24:04;;;;;;;8.80;5.47;;;;;;;-0.70;99.62;100685.81;5048244;28;20090;-71
2022/04/01 07:26:29;;;;;;;8.05;4.32;;;;;;;-0.78;99.03;100677.75;5048517;28;20037;-71
2022/04/01 07:28:55;;;;;;;5.95;3.13;;;;;;;-0.76;99.53;100681.06;5049667;28;20036;-71
2022/04/01 07:34:08;;;;;;;9.90;4.03;;;;;;;-0.85;99.66;100676.59;5044604;28;20041;-69
2022/04/01 07:36:33;;;;;;;6.93;4.03;;;;;;;-0.78;99.96;100693.47;5043589;28;20041;-69
2022/04/01 07:38:59;;;;;;;15.05;4.82;;;;;;;-0.79;99.90;100710.94;5042806;28;20164;-70
2022/04/01 07:41:24;;;;;;;6.10;3.58;;;;;;;-0.78;98.60;100702.16;5043882;28;20507;-71
2022/04/01 07:43:50;;;;;;;3.72;3.33;;;;;;;-0.69;99.08;100708.41;5042168;28;20040;-71
2022/04/01 07:46:16;;;;;;;6.43;3.13;;;;;;;-0.69;98.82;100708.41;5042565;28;20468;-69
2022/04/01 07:48:42;;;;;;;7.90;4.65;;;;;;;-0.75;99.12;100724.63;5043370;28;20044;-71
2022/04/01 07:51:07;;;;;;;5.53;3.28;;;;;;;-0.70;99.24;100710.19;5049043;28;20025;-71
2022/04/01 07:53:32;;;;;;;7.82;4.70;;;;;;;-0.70;99.04;100714.59;5049089;28;20047;-71
2022/04/01 07:55:58;;;;;;;4.68;3.25;;;;;;;-0.73;99.39;100727.97;5048739;28;20033;-71
2022/04/01 07:58:23;;;;;;;6.70;4.50;;;;;;;-0.78;99.46;100728.34;5049066;28;20025;-71
2022/04/01 08:00:49;;;;;;;6.45;4.22;;;;;;;-0.73;99.67;100728.78;5048924;28;20477;-71
2022/04/01 08:03:14;;;;;;;4.45;3.05;;;;;;;-0.72;99.43;100735.66;5047728;28;20087;-71
2022/04/01 08:05:40;;;;;;;6.78;4.22;;;;;;;-0.60;98.56;100753.94;5049094;28;20037;-71
2022/04/01 08:08:05;;;;;;;9.63;3.63;;;;;;;-0.80;99.06;100717.16;5049010;28;20498;-71
2022/04/01 08:10:31;;;;;;;7.75;4.43;;;;;;;-0.68;99.14;100746.75;5049105;28;20492;-71
2022/04/01 08:12:56;;;;;;;5.30;3.47;;;;;;;-0.65;98.79;100743.88;5048967;28;20465;-71
2022/04/01 08:15:21;;;;;;;5.45;3.40;;;;;;;-0.70;98.90;100733.75;5048949;28;20488;-71
2022/04/01 08:17:47;;;;;;;7.03;3.58;;;;;;;-0.72;99.23;100758.41;5049063;28;20512;-71
2022/04/01 08:20:12;;;;;;;7.97;3.95;;;;;;;-0.69;98.95;100743.28;5048975;28;20029;-71
2022/04/01 08:22:41;;;;;;;7.43;3.53;;;;;;;-0.63;98.71;100756.81;5048968;28;20153;-71
2022/04/01 08:25:07;;;;;;;7.25;3.90;;;;;;;-0.65;98.78;100745.66;5048943;28;20028;-71
2022/04/01 08:27:33;;;;;;;6.38;4.22;;;;;;;-0.69;99.17;100769.47;5048698;28;20064;-71
2022/04/01 08:29:59;;;;;;;5.47;2.30;;;;;;;-0.65;99.31;100771.84;5047389;28;20528;-71
2022/04/01 08:32:29;;;;;;;6.65;4.10;;;;;;;-0.59;98.56;100779.19;5048727;28;20037;-71
2022/04/01 08:34:55;;;;;;;6.97;3.58;;;;;;;-0.64;98.04;100769.09;5048536;28;20108;-71
2022/04/01 08:37:20;;;;;;;4.95;2.85;;;;;;;-0.65;98.22;100780.53;5048837;28;20090;-70
2022/04/01 08:39:47;;;;;;;6.03;3.15;;;;;;;-0.62;97.82;100779.44;5048493;28;20055;-73
2022/04/01 08:42:13;;;;;;;6.25;3.30;;;;;;;-0.63;97.89;100807.41;5049124;28;20048;-71
2022/04/01 08:44:41;;;;;;;6.95;3.72;;;;;;;-0.61;96.73;100810.72;5047222;28;20033;-70
2022/04/01 08:47:08;;;;;;;4.53;2.28;;;;;;;-0.63;96.37;100790.88;5048282;28;20154;-71
2022/04/01 08:49:34;;;;;;;3.30;2.30;;;;;;;-0.70;96.60;100820.19;5048619;28;20040;-71
2022/04/01 08:52:00;;;;;;;6.95;2.83;;;;;;;-0.61;96.87;100802.06;5047382;28;20029;-71
2022/04/01 08:54:25;;;;;;;4.55;2.50;;;;;;;-0.61;96.70;100810.72;5048363;28;20362;-71
2022/04/01 08:56:51;;;;;;;6.95;3.17;;;;;;;-0.61;96.75;100834.31;5048234;28;20043;-71
2022/04/01 08:59:16;;;;;;;6.97;2.95;;;;;;;-0.60;96.87;100822.91;5048282;28;20051;-71
2022/04/01 09:01:43;;;;;;;4.32;2.65;;;;;;;-0.57;96.30;100832.28;5051372;28;20029;-71
2022/04/01 09:04:20;;;;;;;5.90;3.47;;;;;;;-0.61;96.88;100828.25;5052097;28;20033;-71
2022/04/01 09:06:45;;;;;;;4.90;2.58;;;;;;;-0.59;97.24;100829.78;5050546;28;20040;-71
2022/04/01 09:09:25;;;;;;;4.00;2.50;;;;;;;-0.50;96.42;100836.91;5051728;28;20025;-71
2022/04/01 09:12:12;;;;;;;11.02;3.55;;;;;;;-0.59;97.56;100829.78;5051462;28;20040;-71
2022/04/01 09:14:40;;;;;;;7.15;3.95;;;;;;;-0.55;97.38;100835.59;5051709;28;20024;-71
2022/04/01 09:17:06;;;;;;;4.90;2.55;;;;;;;-0.55;97.67;100846.06;5051683;28;20028;-71
2022/04/01 09:19:34;;;;;;;3.67;2.35;;;;;;;-0.43;97.06;100839.00;5051803;28;20037;-71
2022/04/01 09:22:17;;;;;;;5.82;2.70;;;;;;;-0.49;97.41;100835.13;5051814;28;20032;-71
2022/04/01 09:24:55;;;;;;;5.18;2.53;;;;;;;-0.52;97.22;100838.81;5051409;28;20044;-71
2022/04/01 09:27:46;;;;;;;3.67;2.13;;;;;;;-0.48;96.92;100857.72;5051502;28;20128;-74
2022/04/01 09:30:20;;;;;;;6.32;2.47;;;;;;;-0.41;95.99;100852.81;5045611;28;20474;-70
2022/04/01 09:32:48;;;;;;;3.60;2.00;;;;;;;-0.43;96.49;100849.50;5045745;28;20068;-70
2022/04/01 09:35:15;;;;;;;6.07;3.38;;;;;;;-0.43;97.10;100847.69;5047083;28;20396;-71
2022/04/01 09:37:48;;;;;;;5.13;2.15;;;;;;;-0.42;97.57;100853.75;5046606;28;20047;-71
2022/04/01 09:40:20;;;;;;;7.53;3.55;;;;;;;-0.38;97.31;100853.41;5044266;28;20072;-72
2022/04/01 09:42:50;;;;;;;5.93;2.65;;;;;;;-0.32;97.11;100859.91;5046728;28;20032;-70
2022/04/01 09:45:22;;;;;;;7.15;3.10;;;;;;;-0.35;97.26;100861.00;5046792;28;20094;-72
2022/04/01 09:48:05;;;;;;;4.90;2.78;;;;;;;-0.36;96.74;100858.53;5046741;28;20023;-70
2022/04/01 09:50:33;;;;;;;5.10;2.80;;;;;;;-0.37;96.02;100852.44;5044846;28;20082;-72
2022/04/01 09:53:10;;;;;;;10.85;1.92;;;;;;;-0.31;96.90;100866.84;5046091;28;20025;-76
2022/04/01 09:55:37;;;;;;;4.70;2.35;;;;;;;-0.43;97.67;100854.72;5046326;28;20029;-71
2022/04/01 09:58:05;;;;;;;4.20;2.45;;;;;;;-0.38;97.13;100858.63;5046259;28;20036;-70
2022/04/01 10:00:31;;;;;;;6.47;2.67;;;;;;;-0.33;96.32;100864.34;5045465;28;20032;-70
2022/04/01 10:02:58;;;;;;;5.25;2.63;;;;;;;-0.30;95.97;100869.31;5045906;28;20021;-70
2022/04/01 10:05:25;;;;;;;4.40;2.42;;;;;;;-0.36;96.27;100859.34;5046879;28;20059;-71
2022/04/01 10:07:52;;;;;;;4.97;2.78;;;;;;;-0.31;95.95;100861.59;5044163;28;20052;-71
2022/04/01 10:10:18;;;;;;;3.78;2.05;;;;;;;-0.29;96.47;100857.03;5045336;28;20021;-71
2022/04/01 10:12:47;;;;;;;5.13;2.97;;;;;;;-0.22;96.31;100859.03;5045735;28;20045;-71
2022/04/01 10:15:13;;;;;;;6.38;2.25;;;;;;;-0.22;96.30;100866.06;5044750;28;20472;-70
2022/04/01 10:17:40;;;;;;;6.13;3.28;;;;;;;-0.27;96.79;100860.38;5045656;28;20040;-71
2022/04/01 10:20:08;;;;;;;3.28;2.70;;;;;;;-0.27;97.23;100869.06;5045328;28;20025;-70
2022/04/01 10:22:35;;;;;;;5.50;2.88;;;;;;;-0.23;97.35;100870.47;5045877;28;20134;-70
2022/04/01 10:25:31;;;;;;;6.85;3.83;;;;;;;-0.19;96.96;100876.28;5047500;28;20107;-71
2022/04/01 10:28:02;;;;;;;6.32;3.65;;;;;;;-0.22;96.73;100877.38;5045890;28;20052;-70
2022/04/01 10:30:31;;;;;;;7.13;3.22;;;;;;;-0.20;96.65;100876.44;5050370;28;20495;-71
2022/04/01 10:32:56;;;;;;;5.00;3.33;;;;;;;-0.23;96.68;100867.03;5050324;28;20124;-70
2022/04/01 10:35:27;;;;;;;5.95;3.35;;;;;;;-0.12;95.91;100872.22;5049950;28;20543;-70
2022/04/01 10:38:05;;;;;;;4.00;2.80;;;;;;;-0.12;95.54;100860.91;5049879;28;20112;-70
2022/04/01 10:40:32;;;;;;;8.95;3.65;;;;;;;-0.11;95.15;100867.78;5049916;28;20295;-70
2022/04/01 10:43:10;;;;;;;5.82;3.45;;;;;;;-0.05;94.09;100877.78;5050060;28;20458;-71
2022/04/01 10:45:38;;;;;;;11.95;4.80;;;;;;;0.02;93.58;100876.31;5050094;28;20116;-70
2022/04/01 10:53:58;;;;;;;8.13;4.68;;;;;;;-0.04;94.03;100889.94;5049725;28;20040;-71
2022/04/01 10:56:24;;;;;;;7.53;3.97;;;;;;;0.00;92.94;100891.34;5049815;28;20029;-70
2022/04/01 10:59:09;;;;;;;7.43;4.10;;;;;;;0.01;93.21;100897.44;5049427;28;20059;-71
2022/04/01 11:01:38;;;;;;;5.00;3.05;;;;;;;-0.03;93.82;100892.44;5049818;28;20031;-71
2022/04/01 11:04:12;;;;;;;6.60;3.55;;;;;;;0.05;93.62;100890.94;5049838;28;20032;-71
2022/04/01 11:07:02;;;;;;;8.80;4.97;;;;;;;0.03;93.88;100893.72;5049763;28;20021;-71
2022/04/01 11:09:50;;;;;;;8.00;3.83;;;;;;;0.01;94.06;100897.44;5049933;28;20033;-72
2022/04/01 11:12:15;;;;;;;9.07;4.63;;;;;;;-0.03;95.39;100895.06;5049711;28;20025;-72
2022/04/01 11:15:11;;;;;;;7.28;3.50;;;;;;;0.03;95.12;100900.72;5049678;28;20072;-72
2022/04/01 11:17:37;;;;;;;11.38;5.07;;;;;;;0.03;94.41;100904.22;5049469;28;20048;-72
2022/04/01 11:20:13;;;;;;;7.90;4.25;;;;;;;0.01;95.38;100900.03;5049542;28;20033;-72
2022/04/01 11:22:54;;;;;;;6.13;3.72;;;;;;;0.03;95.01;100908.59;5048578;28;20537;-72
2022/04/01 11:25:22;;;;;;;6.75;3.63;;;;;;;0.06;94.66;100938.03;5049323;28;20096;-73
2022/04/01 11:28:05;;;;;;;7.47;4.20;;;;;;;0.02;94.02;100906.94;5049584;28;20060;-73
2022/04/01 11:30:41;;;;;;;8.45;4.18;;;;;;;0.07;93.71;100913.47;5049143;28;20100;-73
2022/04/01 11:33:06;;;;;;;12.15;4.65;;;;;;;0.04;94.64;100920.75;5046422;28;20541;-74
2022/04/01 11:35:35;;;;;;;8.75;4.55;;;;;;;0.03;95.01;100905.97;5041749;28;20033;-73
2022/04/01 11:38:02;;;;;;;7.80;4.72;;;;;;;0.00;95.08;100914.94;5042715;28;20020;-71
2022/04/01 11:40:30;;;;;;;6.97;3.95;;;;;;;-0.02;95.34;100922.94;5043715;28;20044;-72